This is the latest recevied weather packets stored in our database for station/object OE5MMP-13. If no packets are shown the sender has not sent any weather packets the latest 10 day(s).
| Time | Temp. | Humidity | Pressure | Rain* | Wind** | Luminosity | Snow |
|---|---|---|---|---|---|---|---|
| 1788369191 | 20.56° C | 64% | 1020.4 hPa | 0 mm | - | 26 W/m² | - |
| 1788368592 | 21.67° C | 61% | 1020.6 hPa | 0 mm | - | 34 W/m² | - |
| 1788367996 | 21.67° C | 59% | 1020.5 hPa | 0 mm | - | 42 W/m² | - |
| 1788367396 | 22.22° C | 57% | 1020.4 hPa | 0 mm | - | 45 W/m² | - |
| 1788366795 | 22.22° C | 57% | 1020.4 hPa | 0 mm | - | 58 W/m² | - |
| 1788366196 | 22.78° C | 56% | 1020.4 hPa | 0 mm | - | 67 W/m² | - |
| 1788365596 | 23.33° C | 54% | 1020.4 hPa | 0 mm | - | 85 W/m² | - |
| 1788364996 | 23.33° C | 53% | 1020.5 hPa | 0 mm | - | 165 W/m² | - |
| 1788364395 | 23.33° C | 55% | 1020.5 hPa | 0 mm | - | 302 W/m² | - |
| 1788363796 | 22.78° C | 55% | 1020.5 hPa | 0 mm | - | 268 W/m² | - |
| 1788363196 | 22.78° C | 55% | 1020.5 hPa | 0 mm | - | 126 W/m² | - |
| 1788362595 | 23.33° C | 55% | 1020.6 hPa | 0 mm | - | 94 W/m² | - |
| 1788361995 | 23.89° C | 54% | 1020.7 hPa | 0 mm | - | 391 W/m² | - |
| 1788361395 | 23.33° C | 54% | 1020.7 hPa | 0 mm | - | 347 W/m² | - |
| 1788360795 | 23.33° C | 55% | 1020.7 hPa | 0 mm | - | 451 W/m² | - |
| 1788360195 | 23.33° C | 55% | 1020.8 hPa | 0 mm | - | 355 W/m² | - |
| 1788359595 | 23.33° C | 56% | 1020.9 hPa | 0 mm | - | 281 W/m² | - |
| 1788358995 | 23.33° C | 54% | 1021 hPa | 0 mm | - | 363 W/m² | - |
| 1788358395 | 23.89° C | 54% | 1021.2 hPa | 0 mm | - | 477 W/m² | - |
| 1788357795 | 23.89° C | 56% | 1021.3 hPa | 0 mm | - | 533 W/m² | - |
| 1788357195 | 23.33° C | 56% | 1021.4 hPa | 0 mm | - | 562 W/m² | - |
| 1788356595 | 23.33° C | 57% | 1021.4 hPa | 0 mm | - | 567 W/m² | - |
| 1788355995 | 23.33° C | 57% | 1021.3 hPa | 0 mm | - | 605 W/m² | - |
| 1788355395 | 23.33° C | 58% | 1021.4 hPa | 0 mm | - | 682 W/m² | - |
| 1788354795 | 23.33° C | 58% | 1021.5 hPa | 0 mm | - | 346 W/m² | - |
* Rain latest hour (hover to see other rain measurements)
** Current wind speed in m/s (hover to see current wind gust speed)